Time;durP1;ratioP1;P1;durP2;ratioP2;P2;SDS_P1;SDS_P2;PMS_P1;PMS_P2;Temp;Humidity;BMP_temperature;BMP_pressure;BME280_temperature;BME280_humidity;BME280_pressure;Samples;Min_cycle;Max_cycle;Signal;HPM_P1;HPM_P2
2021/11/05 00:01:57;;;;;;;43.77;29.00;;;8.90;99.90;;;;;;5017809;28;20496;-45
2021/11/05 00:04:23;;;;;;;40.43;27.53;;;9.10;99.90;;;;;;5022281;28;20214;-44
2021/11/05 00:06:49;;;;;;;47.37;33.30;;;9.10;99.90;;;;;;5014682;28;20195;-44
2021/11/05 00:09:15;;;;;;;51.57;32.30;;;9.20;99.90;;;;;;5017554;28;20675;-45
2021/11/05 00:11:41;;;;;;;50.90;31.83;;;9.40;99.90;;;;;;5008776;28;20484;-44
2021/11/05 00:14:06;;;;;;;47.40;31.90;;;9.20;99.90;;;;;;5014558;28;20449;-47
2021/11/05 00:16:32;;;;;;;50.33;33.43;;;9.10;99.90;;;;;;5026499;28;20440;-45
2021/11/05 00:18:58;;;;;;;54.07;34.43;;;8.90;99.90;;;;;;5019321;28;20206;-45
2021/11/05 00:21:24;;;;;;;51.23;32.37;;;9.00;99.90;;;;;;5020769;28;20451;-44
2021/11/05 00:23:49;;;;;;;53.67;33.83;;;9.10;99.90;;;;;;5021083;28;20284;-46
2021/11/05 00:26:15;;;;;;;57.63;35.10;;;9.20;99.90;;;;;;5017831;28;20191;-44
2021/11/05 00:28:40;;;;;;;53.40;33.43;;;9.00;99.90;;;;;;5013077;28;20647;-45
2021/11/05 00:31:06;;;;;;;55.57;35.90;;;9.00;99.90;;;;;;5008410;28;20197;-45
2021/11/05 00:33:32;;;;;;;52.17;33.00;;;9.10;99.90;;;;;;5007711;28;20191;-45
2021/11/05 00:35:58;;;;;;;59.80;36.90;;;9.00;99.90;;;;;;5020024;28;20193;-44
2021/11/05 00:38:23;;;;;;;56.87;35.77;;;9.00;99.90;;;;;;5024090;28;20191;-45
2021/11/05 00:40:49;;;;;;;54.87;35.03;;;9.00;99.90;;;;;;5017510;28;20826;-46
2021/11/05 00:43:15;;;;;;;54.97;35.07;;;9.10;99.90;;;;;;5008299;28;20531;-48
2021/11/05 00:45:41;;;;;;;53.70;33.83;;;9.10;99.90;;;;;;5008206;28;20223;-44
2021/11/05 00:48:06;;;;;;;57.97;34.10;;;9.20;99.90;;;;;;5007913;28;20192;-49
2021/11/05 00:50:33;;;;;;;58.87;34.40;;;9.10;99.90;;;;;;5007900;28;20290;-50
2021/11/05 00:52:59;;;;;;;51.67;32.17;;;9.20;99.90;;;;;;5009549;28;20195;-45
2021/11/05 00:55:25;;;;;;;53.87;32.60;;;9.20;99.90;;;;;;5020832;28;20572;-44
2021/11/05 00:57:52;;;;;;;49.97;31.90;;;9.30;99.90;;;;;;5027593;28;20540;-50
2021/11/05 01:00:18;;;;;;;56.10;33.27;;;9.40;99.90;;;;;;5017190;28;20430;-45
2021/11/05 01:02:45;;;;;;;53.70;33.73;;;9.50;99.90;;;;;;5006727;28;20450;-44
2021/11/05 01:05:12;;;;;;;56.60;32.30;;;9.10;99.90;;;;;;5012852;28;20482;-44
2021/11/05 01:07:39;;;;;;;59.37;33.00;;;9.10;99.90;;;;;;5019224;28;20422;-48
2021/11/05 01:10:07;;;;;;;51.20;30.80;;;9.40;99.90;;;;;;5026742;28;20497;-50
2021/11/05 01:12:33;;;;;;;50.97;31.43;;;9.20;99.90;;;;;;5007553;28;20437;-44
2021/11/05 01:14:59;;;;;;;56.87;33.00;;;9.20;99.90;;;;;;5011639;28;20437;-48
2021/11/05 01:17:25;;;;;;;59.07;32.27;;;9.00;99.90;;;;;;5007882;28;20450;-47
2021/11/05 01:19:51;;;;;;;52.87;30.33;;;9.10;99.90;;;;;;5008237;28;20465;-45
2021/11/05 01:22:17;;;;;;;55.53;30.83;;;9.10;99.90;;;;;;5017648;28;20565;-47
2021/11/05 01:24:42;;;;;;;58.30;28.90;;;9.20;99.90;;;;;;5018149;28;20473;-47
2021/11/05 01:27:09;;;;;;;47.00;29.47;;;9.10;99.90;;;;;;5008077;28;20424;-45
2021/11/05 01:29:35;;;;;;;49.40;29.97;;;9.00;99.90;;;;;;5018553;28;20190;-44
2021/11/05 01:32:01;;;;;;;55.30;31.87;;;8.90;99.90;;;;;;5008491;28;20866;-47
2021/11/05 01:34:27;;;;;;;51.57;29.30;;;8.80;99.90;;;;;;5006635;28;20472;-44
2021/11/05 01:36:53;;;;;;;49.87;28.90;;;9.00;99.90;;;;;;5018836;28;20822;-44
2021/11/05 01:39:19;;;;;;;49.33;29.40;;;8.90;99.90;;;;;;5015637;28;21034;-46
2021/11/05 01:41:45;;;;;;;48.40;28.80;;;8.70;99.90;;;;;;5007217;28;20327;-45
2021/11/05 01:44:12;;;;;;;50.50;29.53;;;8.80;99.90;;;;;;5013704;28;20571;-44
2021/11/05 01:46:41;;;;;;;51.67;28.33;;;8.90;99.90;;;;;;5006497;28;20426;-45
2021/11/05 01:49:08;;;;;;;47.80;27.77;;;8.80;99.90;;;;;;5007178;28;20449;-50
2021/11/05 01:51:36;;;;;;;52.27;28.97;;;8.80;99.90;;;;;;5019995;28;20843;-46
2021/11/05 01:54:04;;;;;;;48.40;28.83;;;8.90;99.90;;;;;;5014657;28;20935;-48
2021/11/05 01:56:32;;;;;;;50.10;29.73;;;8.70;99.90;;;;;;5026201;28;20476;-45
2021/11/05 01:58:57;;;;;;;53.80;29.43;;;8.70;99.90;;;;;;5026130;28;21082;-48
2021/11/05 02:01:23;;;;;;;50.70;29.10;;;8.90;99.90;;;;;;5007285;28;20501;-50
2021/11/05 02:03:50;;;;;;;49.43;29.20;;;8.70;99.90;;;;;;5004811;28;20207;-46
2021/11/05 02:06:21;;;;;;;48.63;27.23;;;8.70;99.90;;;;;;5013487;28;20198;-45
2021/11/05 02:08:51;;;;;;;45.37;27.03;;;8.80;99.90;;;;;;5024189;28;20421;-45
2021/11/05 02:11:19;;;;;;;49.00;27.73;;;8.90;99.90;;;;;;5015040;28;20430;-45
2021/11/05 02:13:46;;;;;;;45.40;27.27;;;8.80;99.90;;;;;;5005078;28;20422;-47
2021/11/05 02:16:12;;;;;;;46.30;27.40;;;8.70;99.90;;;;;;5018271;28;20496;-44
2021/11/05 02:18:43;;;;;;;49.27;27.97;;;8.70;99.90;;;;;;5006479;28;20919;-44
2021/11/05 02:21:15;;;;;;;44.07;25.63;;;8.70;99.90;;;;;;5008556;28;20536;-47
2021/11/05 02:23:41;;;;;;;45.00;26.40;;;8.90;99.90;;;;;;5017862;28;20493;-47
2021/11/05 02:26:07;;;;;;;45.67;26.60;;;8.90;99.90;;;;;;5012562;28;20426;-45
2021/11/05 02:28:39;;;;;;;48.63;28.40;;;8.80;99.90;;;;;;5006220;28;20925;-46
2021/11/05 02:31:07;;;;;;;44.93;27.57;;;8.90;99.90;;;;;;5015261;28;20538;-47
2021/11/05 02:33:32;;;;;;;41.17;26.07;;;8.70;99.90;;;;;;5005713;28;20429;-45
2021/11/05 02:35:58;;;;;;;44.17;28.03;;;8.70;99.90;;;;;;5006442;28;20888;-45
2021/11/05 02:38:24;;;;;;;47.57;27.60;;;8.80;99.90;;;;;;5014817;28;20175;-44
2021/11/05 02:40:51;;;;;;;44.07;27.53;;;8.70;99.90;;;;;;5024866;28;20199;-44
2021/11/05 02:43:18;;;;;;;46.03;28.07;;;8.90;99.90;;;;;;5008420;28;20545;-44
2021/11/05 02:45:48;;;;;;;46.03;25.97;;;8.70;99.90;;;;;;5006235;28;20454;-45
2021/11/05 02:48:14;;;;;;;47.70;28.43;;;8.50;99.90;;;;;;5006210;28;20426;-45
2021/11/05 02:50:39;;;;;;;43.60;25.80;;;8.60;99.90;;;;;;5005562;28;20538;-45
2021/11/05 02:53:05;;;;;;;43.67;26.87;;;8.70;99.90;;;;;;5014394;28;20948;-45
2021/11/05 02:55:31;;;;;;;45.77;26.63;;;8.70;99.90;;;;;;5018551;28;20244;-45
2021/11/05 02:57:57;;;;;;;40.67;25.87;;;8.80;99.90;;;;;;5006055;28;20678;-45
2021/11/05 03:00:22;;;;;;;41.80;24.93;;;8.70;99.90;;;;;;5006865;28;20345;-46
2021/11/05 03:02:48;;;;;;;41.60;26.50;;;8.80;99.90;;;;;;5005518;28;20270;-47
2021/11/05 03:05:14;;;;;;;44.37;25.67;;;9.00;99.90;;;;;;5005922;28;20809;-45
2021/11/05 03:07:40;;;;;;;42.10;25.50;;;8.80;99.90;;;;;;5009717;28;20199;-44
2021/11/05 03:10:07;;;;;;;41.20;25.80;;;8.80;99.90;;;;;;5010940;28;20190;-46
2021/11/05 03:12:33;;;;;;;47.40;26.07;;;8.50;99.90;;;;;;5002945;28;20442;-44
2021/11/05 03:14:59;;;;;;;42.87;25.97;;;8.70;99.90;;;;;;5012895;28;20452;-45
2021/11/05 03:17:24;;;;;;;53.10;26.57;;;8.80;99.90;;;;;;5007522;28;20426;-44
2021/11/05 03:19:52;;;;;;;41.10;24.20;;;8.60;99.90;;;;;;5006032;28;20812;-44
2021/11/05 03:22:18;;;;;;;43.00;24.53;;;8.60;99.90;;;;;;5016660;28;20448;-44
2021/11/05 03:24:43;;;;;;;46.03;24.90;;;8.60;99.90;;;;;;5019955;28;20767;-45
2021/11/05 03:27:09;;;;;;;47.37;27.23;;;8.70;99.90;;;;;;5023866;28;20426;-47
2021/11/05 03:29:35;;;;;;;46.30;24.90;;;8.60;99.90;;;;;;5010839;28;20666;-44
2021/11/05 03:32:01;;;;;;;44.20;24.57;;;8.60;99.90;;;;;;5011921;28;20187;-44
2021/11/05 03:34:26;;;;;;;45.37;25.90;;;8.60;99.90;;;;;;5009181;28;20195;-46
2021/11/05 03:36:52;;;;;;;48.63;25.87;;;8.60;99.90;;;;;;5016438;28;20641;-46
2021/11/05 03:39:18;;;;;;;44.10;24.00;;;8.60;99.90;;;;;;5020978;28;20186;-45
2021/11/05 03:41:44;;;;;;;45.70;25.70;;;8.70;99.90;;;;;;5020918;28;20321;-46
2021/11/05 03:44:09;;;;;;;48.30;25.43;;;8.70;99.90;;;;;;5008689;28;20468;-45
2021/11/05 03:46:35;;;;;;;48.60;25.87;;;8.90;99.90;;;;;;5010161;28;20198;-51
2021/11/05 03:49:03;;;;;;;51.27;27.50;;;8.60;99.90;;;;;;5009166;28;20721;-46
2021/11/05 03:51:28;;;;;;;49.17;27.57;;;8.70;99.90;;;;;;5009184;28;20183;-47
2021/11/05 03:53:54;;;;;;;46.87;25.80;;;8.80;99.90;;;;;;5016069;28;20443;-46
2021/11/05 03:56:20;;;;;;;50.57;27.93;;;8.80;99.90;;;;;;5019755;28;20289;-45
2021/11/05 03:58:46;;;;;;;51.30;27.90;;;8.80;99.90;;;;;;5009441;28;20203;-46
2021/11/05 04:01:11;;;;;;;50.47;26.23;;;8.70;99.90;;;;;;5018664;28;20763;-45
2021/11/05 04:03:37;;;;;;;50.17;27.37;;;8.70;99.90;;;;;;5008513;28;20677;-45
2021/11/05 04:06:03;;;;;;;48.40;24.93;;;8.90;99.90;;;;;;5010162;28;20183;-50
2021/11/05 04:08:29;;;;;;;48.00;25.60;;;8.70;99.90;;;;;;5018368;28;20630;-46
2021/11/05 04:10:56;;;;;;;43.20;23.47;;;8.80;99.90;;;;;;5018004;28;20678;-46
2021/11/05 04:13:22;;;;;;;49.20;26.83;;;8.70;99.90;;;;;;5006841;28;20650;-44
2021/11/05 04:15:48;;;;;;;49.07;26.47;;;8.90;99.90;;;;;;5013945;28;20655;-45
2021/11/05 04:18:14;;;;;;;50.80;28.37;;;8.70;99.90;;;;;;5008961;28;20533;-45
2021/11/05 04:20:40;;;;;;;49.00;25.73;;;8.80;99.90;;;;;;5007244;28;20426;-45
2021/11/05 04:23:07;;;;;;;63.10;29.23;;;8.70;99.90;;;;;;5019450;28;20202;-45
2021/11/05 04:25:36;;;;;;;62.37;30.27;;;8.80;99.90;;;;;;5022220;28;20932;-47
2021/11/05 04:28:03;;;;;;;62.47;29.97;;;8.70;99.90;;;;;;5015974;28;20430;-46
2021/11/05 04:30:29;;;;;;;59.40;29.50;;;8.80;99.90;;;;;;5009324;28;20473;-44
2021/11/05 04:32:55;;;;;;;50.97;27.53;;;8.70;99.90;;;;;;5006645;28;20425;-47
2021/11/05 04:35:20;;;;;;;59.60;28.90;;;9.00;99.90;;;;;;5008057;28;20434;-49
2021/11/05 04:37:46;;;;;;;60.10;30.47;;;9.10;99.90;;;;;;5011482;28;20199;-44
2021/11/05 04:40:12;;;;;;;56.93;29.83;;;8.90;99.90;;;;;;5017224;28;20195;-46
2021/11/05 04:42:38;;;;;;;54.00;28.50;;;8.70;99.90;;;;;;5012812;28;20285;-47
2021/11/05 04:45:04;;;;;;;60.20;30.07;;;8.60;99.90;;;;;;5010163;28;20215;-45
2021/11/05 04:47:29;;;;;;;61.73;29.47;;;8.60;99.90;;;;;;5015472;28;20428;-45
2021/11/05 04:49:55;;;;;;;66.00;31.00;;;8.30;99.90;;;;;;5007992;28;20422;-51
2021/11/05 04:52:21;;;;;;;61.77;31.70;;;8.50;99.90;;;;;;5007153;28;20210;-49
2021/11/05 04:54:46;;;;;;;58.57;28.10;;;8.40;99.90;;;;;;5021006;28;20203;-45
2021/11/05 04:57:12;;;;;;;60.87;27.70;;;8.70;99.90;;;;;;5014551;28;20214;-44
2021/11/05 04:59:38;;;;;;;58.67;29.10;;;8.60;99.90;;;;;;5007940;28;20194;-45
2021/11/05 05:02:05;;;;;;;62.03;30.57;;;8.40;99.90;;;;;;5013581;28;20194;-45
2021/11/05 05:04:31;;;;;;;59.87;30.67;;;8.40;99.90;;;;;;5006824;28;20788;-47
2021/11/05 05:06:56;;;;;;;62.80;31.20;;;8.30;99.90;;;;;;5016299;28;20826;-48
2021/11/05 05:09:22;;;;;;;61.00;31.20;;;8.40;99.90;;;;;;5013280;28;20422;-45
2021/11/05 05:11:49;;;;;;;60.67;30.47;;;8.40;99.90;;;;;;5017438;28;20269;-47
2021/11/05 05:14:15;;;;;;;69.10;31.07;;;8.50;99.90;;;;;;5005446;28;20689;-48
2021/11/05 05:16:42;;;;;;;57.90;29.03;;;8.50;99.90;;;;;;5009680;28;20437;-45
2021/11/05 05:19:07;;;;;;;63.47;28.80;;;8.50;99.90;;;;;;5007117;28;20434;-47
2021/11/05 05:21:33;;;;;;;62.60;30.63;;;8.60;99.90;;;;;;5007716;28;20781;-45
2021/11/05 05:23:59;;;;;;;60.87;28.40;;;8.70;99.90;;;;;;5011055;28;20219;-46
2021/11/05 05:26:25;;;;;;;58.57;27.23;;;8.60;99.90;;;;;;5014629;28;21394;-51
2021/11/05 05:28:50;;;;;;;54.90;27.70;;;8.70;99.90;;;;;;5007584;28;20566;-45
2021/11/05 05:31:16;;;;;;;53.80;28.60;;;8.60;99.90;;;;;;5017508;28;20701;-46
2021/11/05 05:33:42;;;;;;;63.77;30.07;;;8.60;99.90;;;;;;5007039;28;20203;-46
2021/11/05 05:36:09;;;;;;;58.30;28.23;;;8.50;99.90;;;;;;5007571;28;20187;-45
2021/11/05 05:38:35;;;;;;;52.07;27.53;;;8.60;99.90;;;;;;5009723;28;20506;-45
2021/11/05 05:41:02;;;;;;;50.63;27.83;;;8.70;99.90;;;;;;5009703;28;20441;-45
2021/11/05 05:43:28;;;;;;;55.33;26.17;;;8.60;99.90;;;;;;5018948;28;20433;-46
2021/11/05 05:45:54;;;;;;;55.30;29.43;;;8.90;99.90;;;;;;5024196;28;20979;-46
2021/11/05 05:48:20;;;;;;;53.87;25.00;;;8.70;99.90;;;;;;5007567;28;20195;-47
2021/11/05 05:50:46;;;;;;;47.20;25.53;;;8.70;99.90;;;;;;5006234;28;20290;-47
2021/11/05 05:53:12;;;;;;;54.27;27.40;;;8.70;99.90;;;;;;5012781;28;20528;-45
2021/11/05 05:55:39;;;;;;;51.20;24.90;;;8.50;99.90;;;;;;5025292;28;20273;-46
2021/11/05 05:58:06;;;;;;;47.20;24.83;;;8.60;99.90;;;;;;5017050;28;20929;-46
2021/11/05 06:00:32;;;;;;;53.37;24.90;;;8.50;99.90;;;;;;5006630;28;20434;-45
2021/11/05 06:02:58;;;;;;;51.57;26.40;;;8.50;99.90;;;;;;5006864;28;20851;-48
2021/11/05 06:05:25;;;;;;;50.03;25.23;;;8.20;99.90;;;;;;5006931;28;20469;-47
2021/11/05 06:07:50;;;;;;;46.50;24.53;;;8.30;99.90;;;;;;5018178;28;20464;-46
2021/11/05 06:10:16;;;;;;;47.67;25.40;;;8.40;99.90;;;;;;5018651;28;20433;-47
2021/11/05 06:12:42;;;;;;;44.33;24.27;;;8.40;99.90;;;;;;5010453;28;20195;-45
2021/11/05 06:15:08;;;;;;;52.63;25.57;;;8.30;99.90;;;;;;5006511;28;20226;-45
2021/11/05 06:17:34;;;;;;;49.57;25.60;;;8.20;99.90;;;;;;5015419;28;20478;-46
2021/11/05 06:20:00;;;;;;;46.83;25.00;;;8.50;99.90;;;;;;5015722;28;20457;-47
2021/11/05 06:22:26;;;;;;;41.87;23.57;;;8.30;99.90;;;;;;5021115;28;20611;-50
2021/11/05 06:24:53;;;;;;;50.27;24.40;;;8.30;99.90;;;;;;5015975;28;20519;-47
2021/11/05 06:27:19;;;;;;;47.30;25.00;;;8.20;99.90;;;;;;5017923;28;20823;-48
2021/11/05 06:29:44;;;;;;;51.10;23.63;;;8.20;99.90;;;;;;5024917;28;20923;-47
2021/11/05 06:32:10;;;;;;;47.27;24.73;;;8.30;99.90;;;;;;5015314;28;20433;-48
2021/11/05 06:34:36;;;;;;;50.47;25.77;;;8.20;99.90;;;;;;5007771;28;20190;-47
2021/11/05 06:37:02;;;;;;;50.30;25.90;;;8.10;99.90;;;;;;5021465;28;20273;-46
2021/11/05 06:39:28;;;;;;;45.03;25.60;;;8.10;99.90;;;;;;5018851;28;20202;-47
2021/11/05 06:41:55;;;;;;;46.13;26.03;;;8.10;99.90;;;;;;5023368;28;20445;-46
2021/11/05 06:44:21;;;;;;;46.37;22.90;;;8.10;99.90;;;;;;5028844;28;20301;-45
2021/11/05 06:46:46;;;;;;;50.80;23.47;;;8.20;99.90;;;;;;5012409;28;20667;-49
2021/11/05 06:49:12;;;;;;;41.17;21.93;;;8.20;99.90;;;;;;5021328;28;20195;-45
2021/11/05 06:51:38;;;;;;;49.73;24.33;;;8.30;99.90;;;;;;5016750;28;20194;-46
2021/11/05 06:54:03;;;;;;;38.00;21.63;;;8.30;99.90;;;;;;5023603;28;20230;-50
2021/11/05 06:56:29;;;;;;;49.20;23.43;;;8.20;99.90;;;;;;5022165;28;20232;-46
2021/11/05 06:58:58;;;;;;;46.70;23.37;;;8.30;99.90;;;;;;5017383;28;20790;-44
2021/11/05 07:01:24;;;;;;;51.50;24.80;;;8.30;99.90;;;;;;5021553;28;20248;-47
2021/11/05 07:03:51;;;;;;;46.30;22.50;;;8.30;99.90;;;;;;5020166;28;20456;-44
2021/11/05 07:06:17;;;;;;;49.13;25.40;;;8.30;99.90;;;;;;5017748;28;20448;-47
2021/11/05 07:08:42;;;;;;;49.70;23.63;;;8.20;99.90;;;;;;5020752;28;20441;-45
2021/11/05 07:11:08;;;;;;;47.27;24.83;;;8.10;99.90;;;;;;5010121;28;20430;-46
2021/11/05 07:13:34;;;;;;;45.20;23.77;;;8.20;99.90;;;;;;5019630;28;20693;-45
2021/11/05 07:16:00;;;;;;;50.57;24.47;;;8.10;99.90;;;;;;5017632;28;20194;-46
2021/11/05 07:18:26;;;;;;;41.20;23.47;;;8.00;99.90;;;;;;5004909;28;20237;-45
2021/11/05 07:20:52;;;;;;;49.83;23.90;;;8.20;99.90;;;;;;5004407;28;20470;-45
2021/11/05 07:23:18;;;;;;;46.17;23.57;;;8.20;99.90;;;;;;5009191;28;20456;-48
2021/11/05 07:25:44;;;;;;;48.90;22.70;;;8.30;99.90;;;;;;5012111;28;20458;-45
2021/11/05 07:28:10;;;;;;;47.40;25.23;;;8.30;99.90;;;;;;5024330;28;20429;-47
2021/11/05 07:30:37;;;;;;;45.10;25.30;;;8.30;99.90;;;;;;5006170;28;20438;-45
2021/11/05 07:33:03;;;;;;;52.23;25.07;;;8.30;99.90;;;;;;5008442;28;20279;-45
2021/11/05 07:35:29;;;;;;;47.53;23.00;;;8.40;99.90;;;;;;5005668;28;20944;-47
2021/11/05 07:37:54;;;;;;;43.67;23.80;;;8.20;99.90;;;;;;5006794;28;20469;-47
2021/11/05 07:40:21;;;;;;;45.17;23.50;;;8.40;99.90;;;;;;5015897;28;20244;-47
2021/11/05 07:42:49;;;;;;;52.10;24.27;;;8.30;99.90;;;;;;5015740;28;20449;-45
2021/11/05 07:45:17;;;;;;;41.03;21.70;;;8.40;99.90;;;;;;5005514;28;20473;-45
2021/11/05 07:47:45;;;;;;;38.27;20.67;;;8.50;99.90;;;;;;5017525;28;20421;-44
2021/11/05 07:50:14;;;;;;;51.30;23.10;;;8.50;99.90;;;;;;5015801;28;20445;-44
2021/11/05 07:52:40;;;;;;;40.87;23.30;;;8.50;99.90;;;;;;5032047;28;20409;-47
2021/11/05 07:55:07;;;;;;;46.10;22.27;;;8.50;99.90;;;;;;5021090;28;20973;-46
2021/11/05 07:57:34;;;;;;;51.27;22.27;;;8.50;99.90;;;;;;5034525;28;20759;-45
2021/11/05 08:00:00;;;;;;;48.00;22.20;;;8.70;99.90;;;;;;5034932;28;20421;-46
2021/11/05 08:02:26;;;;;;;47.20;24.23;;;8.40;99.90;;;;;;5030415;28;20425;-52
2021/11/05 08:04:51;;;;;;;46.83;23.00;;;8.60;99.90;;;;;;5030799;28;20226;-47
2021/11/05 08:07:22;;;;;;;53.83;24.20;;;8.40;99.90;;;;;;5013026;28;20191;-45
2021/11/05 08:09:48;;;;;;;53.27;24.87;;;8.50;99.90;;;;;;5014654;28;20277;-45
2021/11/05 08:12:14;;;;;;;56.30;25.40;;;8.40;99.90;;;;;;5017978;28;20429;-45
2021/11/05 08:14:40;;;;;;;46.87;23.10;;;8.40;99.90;;;;;;5018612;28;20980;-45
2021/11/05 08:17:07;;;;;;;53.73;24.30;;;8.40;99.90;;;;;;5012232;28;20516;-47
2021/11/05 08:19:32;;;;;;;51.00;25.30;;;8.50;99.90;;;;;;5010744;28;20368;-44
2021/11/05 08:21:58;;;;;;;50.33;23.20;;;8.40;99.90;;;;;;5036432;28;21013;-46
2021/11/05 08:24:27;;;;;;;47.93;22.47;;;8.40;99.90;;;;;;5027440;28;20214;-45
2021/11/05 08:26:53;;;;;;;47.10;25.10;;;8.50;99.90;;;;;;5025208;28;21255;-44
2021/11/05 08:29:19;;;;;;;46.37;21.17;;;8.80;99.90;;;;;;5027721;28;20426;-45
2021/11/05 08:31:44;;;;;;;42.10;21.10;;;8.50;99.90;;;;;;5014207;28;20836;-46
2021/11/05 08:34:10;;;;;;;40.57;20.93;;;8.50;99.90;;;;;;5019350;28;20195;-45
2021/11/05 08:36:36;;;;;;;45.60;23.00;;;8.60;99.90;;;;;;5025188;28;20194;-52
2021/11/05 08:39:03;;;;;;;40.97;21.37;;;8.50;99.90;;;;;;5030754;28;20528;-47
2021/11/05 08:41:29;;;;;;;39.30;20.37;;;8.60;99.90;;;;;;5028969;28;20429;-45
2021/11/05 08:43:56;;;;;;;42.63;20.63;;;8.60;99.90;;;;;;5018403;28;20809;-47
2021/11/05 08:46:23;;;;;;;37.60;20.13;;;8.80;99.90;;;;;;5008348;28;20194;-47
2021/11/05 08:48:58;;;;;;;37.20;19.33;;;8.60;99.90;;;;;;5016949;28;20517;-45
2021/11/05 08:51:24;;;;;;;40.07;21.97;;;8.70;99.90;;;;;;5007730;28;20421;-45
2021/11/05 08:53:50;;;;;;;36.97;19.77;;;8.90;99.90;;;;;;4996274;28;20833;-44
2021/11/05 08:56:16;;;;;;;40.10;18.67;;;8.70;99.90;;;;;;5021201;28;20422;-45
2021/11/05 08:58:44;;;;;;;39.73;21.63;;;8.90;99.90;;;;;;5025580;28;20252;-46
2021/11/05 09:01:10;;;;;;;39.03;20.03;;;8.70;99.90;;;;;;5025927;28;20463;-48
2021/11/05 09:03:36;;;;;;;37.53;18.90;;;9.00;99.90;;;;;;5017117;28;20428;-45
2021/11/05 09:06:03;;;;;;;38.90;20.23;;;8.70;99.90;;;;;;5009475;28;20430;-47
2021/11/05 09:08:30;;;;;;;36.87;18.50;;;8.80;99.90;;;;;;5030748;28;20185;-46
2021/11/05 09:11:07;;;;;;;40.27;20.47;;;8.90;99.90;;;;;;5030079;28;20418;-46
2021/11/05 09:13:34;;;;;;;36.43;19.33;;;9.10;99.90;;;;;;5017410;28;20828;-45
2021/11/05 09:16:00;;;;;;;33.97;18.67;;;9.10;99.90;;;;;;5023493;28;20559;-45
2021/11/05 09:18:26;;;;;;;34.33;19.43;;;9.20;99.90;;;;;;5033751;28;20425;-45
2021/11/05 09:20:52;;;;;;;41.27;20.37;;;9.10;99.90;;;;;;5032155;28;20428;-45
2021/11/05 09:23:18;;;;;;;36.27;18.73;;;9.00;99.90;;;;;;5020726;28;20383;-45
2021/11/05 09:25:44;;;;;;;34.23;18.77;;;8.60;99.90;;;;;;5015659;28;20671;-45
2021/11/05 09:28:10;;;;;;;38.97;20.87;;;8.80;99.90;;;;;;5011812;28;20685;-45
2021/11/05 09:30:36;;;;;;;44.20;20.90;;;8.80;99.90;;;;;;5007182;28;20488;-45
2021/11/05 09:33:02;;;;;;;41.77;21.40;;;8.70;99.90;;;;;;5014379;28;20774;-45
2021/11/05 09:35:28;;;;;;;37.70;19.47;;;8.80;99.90;;;;;;5007288;28;20187;-47
2021/11/05 09:37:54;;;;;;;40.70;20.90;;;9.00;99.90;;;;;;5007547;28;20290;-46
2021/11/05 09:40:24;;;;;;;34.17;20.80;;;8.80;99.90;;;;;;5019023;28;20815;-50
2021/11/05 09:42:51;;;;;;;33.27;19.40;;;8.90;99.90;;;;;;5021038;28;20425;-45
2021/11/05 09:45:18;;;;;;;31.00;19.17;;;8.80;99.90;;;;;;5019590;28;20489;-46
2021/11/05 09:47:46;;;;;;;39.30;20.50;;;8.80;99.90;;;;;;5010461;28;20516;-45
2021/11/05 09:50:14;;;;;;;37.70;21.57;;;9.00;99.90;;;;;;5005994;28;20461;-47
2021/11/05 09:52:40;;;;;;;39.73;21.90;;;9.00;99.90;;;;;;5006909;28;20480;-45
2021/11/05 09:55:08;;;;;;;37.67;21.37;;;8.90;99.90;;;;;;5014481;28;20457;-45
2021/11/05 09:57:34;;;;;;;33.83;20.30;;;9.20;99.90;;;;;;5022003;28;20236;-45
2021/11/05 09:59:59;;;;;;;39.87;20.33;;;9.30;99.90;;;;;;5011439;28;20434;-45
2021/11/05 10:02:25;;;;;;;34.67;19.67;;;9.10;99.90;;;;;;5006983;28;20281;-45
2021/11/05 10:04:52;;;;;;;39.97;20.93;;;9.20;99.90;;;;;;5018584;28;20227;-46
2021/11/05 10:07:18;;;;;;;39.57;20.67;;;9.10;99.90;;;;;;5017639;28;20425;-47
2021/11/05 10:09:53;;;;;;;35.53;20.60;;;9.10;99.90;;;;;;5010462;28;20828;-45
2021/11/05 10:12:24;;;;;;;36.27;20.10;;;9.10;99.90;;;;;;5014564;28;20834;-46
2021/11/05 10:14:59;;;;;;;38.73;20.30;;;9.10;99.90;;;;;;5011782;28;20438;-45
2021/11/05 10:17:25;;;;;;;32.13;18.63;;;9.20;99.90;;;;;;5006798;28;20871;-48
2021/11/05 10:20:04;;;;;;;37.00;20.93;;;9.10;99.90;;;;;;5014913;28;20438;-46
2021/11/05 10:22:49;;;;;;;34.50;19.87;;;9.00;99.90;;;;;;5006730;28;20313;-46
2021/11/05 10:25:26;;;;;;;32.90;19.83;;;9.20;99.90;;;;;;5010966;28;20980;-44
2021/11/05 10:28:12;;;;;;;37.47;19.87;;;9.50;99.90;;;;;;5011104;28;20504;-44
2021/11/05 10:30:44;;;;;;;36.77;20.40;;;9.30;99.90;;;;;;5006366;28;20433;-45
2021/11/05 10:33:18;;;;;;;37.93;21.77;;;9.40;99.90;;;;;;5010219;28;20425;-46
2021/11/05 10:35:49;;;;;;;34.33;20.80;;;9.50;99.90;;;;;;5004074;28;20437;-45
2021/11/05 10:38:15;;;;;;;33.90;19.97;;;9.50;99.90;;;;;;5006702;28;20922;-45
2021/11/05 10:40:48;;;;;;;35.03;18.90;;;9.60;99.90;;;;;;5017536;28;20429;-45
2021/11/05 10:43:18;;;;;;;28.20;17.10;;;9.60;99.90;;;;;;5021559;28;20454;-45
2021/11/05 10:45:47;;;;;;;35.17;20.37;;;9.70;99.90;;;;;;5014796;28;20573;-48
2021/11/05 10:48:15;;;;;;;30.30;19.20;;;9.70;99.90;;;;;;5006249;28;20775;-45
2021/11/05 10:50:48;;;;;;;31.47;19.60;;;9.80;99.90;;;;;;5006534;28;20825;-45
2021/11/05 10:53:25;;;;;;;30.27;16.53;;;9.70;99.90;;;;;;5005456;28;20467;-47
2021/11/05 10:55:58;;;;;;;27.13;17.30;;;9.70;99.90;;;;;;5009639;28;20440;-47
2021/11/05 10:58:29;;;;;;;23.83;17.40;;;9.90;99.90;;;;;;5021979;28;20539;-45
2021/11/05 11:01:01;;;;;;;29.93;18.37;;;10.00;99.90;;;;;;5005970;28;20425;-47
2021/11/05 11:03:32;;;;;;;30.20;17.87;;;10.10;99.90;;;;;;5010845;28;20507;-46
2021/11/05 11:06:02;;;;;;;26.20;17.90;;;10.20;99.90;;;;;;5009778;28;20422;-47
2021/11/05 11:08:32;;;;;;;30.50;18.97;;;10.20;99.90;;;;;;5014356;28;20433;-46
2021/11/05 11:11:12;;;;;;;31.10;18.70;;;10.10;99.90;;;;;;5005508;28;20442;-45
2021/11/05 11:13:39;;;;;;;27.90;19.37;;;10.00;99.90;;;;;;5012064;28;20935;-45
2021/11/05 11:16:11;;;;;;;25.77;18.07;;;10.00;99.90;;;;;;5018014;28;20432;-45
2021/11/05 11:18:57;;;;;;;29.40;18.17;;;9.80;99.90;;;;;;5009648;28;20635;-46
2021/11/05 11:21:26;;;;;;;28.93;18.10;;;10.10;99.90;;;;;;5006075;28;20448;-45
2021/11/05 11:23:53;;;;;;;30.30;17.60;;;10.30;99.90;;;;;;5003886;28;20967;-45
2021/11/05 11:26:19;;;;;;;29.40;18.10;;;10.00;99.90;;;;;;5010535;28;20618;-45
2021/11/05 11:28:45;;;;;;;33.03;19.33;;;10.20;99.90;;;;;;5021238;28;20545;-46
2021/11/05 11:31:12;;;;;;;30.00;19.20;;;10.30;99.90;;;;;;5005988;28;20513;-46
2021/11/05 11:33:39;;;;;;;28.53;18.37;;;10.30;99.90;;;;;;5010101;28;20516;-45
2021/11/05 11:36:07;;;;;;;33.70;19.93;;;10.20;99.90;;;;;;5013389;28;21159;-47
2021/11/05 11:38:33;;;;;;;28.13;18.50;;;10.30;99.90;;;;;;5006041;28;20426;-44
2021/11/05 11:41:00;;;;;;;26.93;16.87;;;10.60;99.90;;;;;;5013673;28;20914;-45
2021/11/05 11:43:27;;;;;;;26.77;16.97;;;10.40;99.90;;;;;;4992835;28;20426;-45
2021/11/05 11:45:55;;;;;;;22.80;16.03;;;10.50;99.90;;;;;;5005807;28;20502;-45
2021/11/05 11:48:51;;;;;;;28.60;18.60;;;10.60;99.90;;;;;;5008634;28;20699;-46
2021/11/05 11:51:33;;;;;;;28.30;17.97;;;10.60;99.90;;;;;;5023319;28;20871;-45
2021/11/05 11:54:16;;;;;;;26.50;16.77;;;10.60;99.90;;;;;;5029079;28;20470;-46
2021/11/05 11:56:43;;;;;;;27.17;17.30;;;10.60;99.90;;;;;;5024387;28;20494;-48
2021/11/05 11:59:14;;;;;;;25.67;16.67;;;10.70;99.90;;;;;;5022587;28;20468;-51
2021/11/05 12:01:42;;;;;;;23.50;17.47;;;10.70;99.90;;;;;;5009183;28;20496;-47
2021/11/05 12:04:13;;;;;;;26.00;16.50;;;10.50;99.90;;;;;;5014012;28;20578;-50
2021/11/05 12:06:56;;;;;;;29.40;17.83;;;10.70;99.90;;;;;;5016311;28;20428;-52
2021/11/05 12:09:41;;;;;;;27.33;19.27;;;10.60;99.90;;;;;;5010737;28;20925;-47
2021/11/05 12:12:22;;;;;;;24.27;16.90;;;10.60;99.90;;;;;;5018656;28;20436;-48
2021/11/05 12:15:00;;;;;;;29.17;18.30;;;10.70;99.90;;;;;;5023667;28;20759;-45
2021/11/05 12:17:46;;;;;;;24.63;18.60;;;10.60;99.90;;;;;;5011206;28;20425;-47
2021/11/05 12:20:35;;;;;;;28.27;18.77;;;10.80;99.90;;;;;;5009137;28;20560;-47
2021/11/05 12:23:12;;;;;;;27.00;18.87;;;11.00;99.90;;;;;;5008710;28;20422;-45
2021/11/05 12:25:41;;;;;;;24.17;16.80;;;10.90;99.90;;;;;;5011793;28;20958;-46
2021/11/05 12:28:17;;;;;;;24.80;18.10;;;11.00;99.90;;;;;;5017435;28;20425;-45
2021/11/05 12:30:49;;;;;;;24.13;18.50;;;11.10;99.90;;;;;;5015743;28;20405;-45
2021/11/05 12:33:24;;;;;;;24.40;18.07;;;11.00;99.90;;;;;;5008451;28;20525;-45
2021/11/05 12:35:52;;;;;;;22.43;17.10;;;11.00;99.90;;;;;;5018252;28;20435;-45
2021/11/05 12:38:18;;;;;;;19.23;15.57;;;10.90;99.90;;;;;;5008773;28;20480;-45